createdAt,value
2023-03-02T00:01:45.594Z,101413.50
2023-03-02T00:04:12.102Z,101411.50
2023-03-02T00:06:39.516Z,101411.13
2023-03-02T00:09:06.000Z,101414.66
2023-03-02T00:11:33.358Z,101411.88
2023-03-02T00:16:43.732Z,101415.13
2023-03-02T00:19:11.028Z,101410.72
2023-03-02T00:21:37.489Z,101404.69
2023-03-02T00:24:03.932Z,101399.97
2023-03-02T00:26:30.851Z,101404.31
2023-03-02T00:28:58.249Z,101404.38
2023-03-02T00:31:24.729Z,101410.75
2023-03-02T00:33:51.207Z,101408.72
2023-03-02T00:36:17.655Z,101405.16
2023-03-02T00:38:45.026Z,101403.16
2023-03-02T00:41:12.435Z,101408.72
2023-03-02T00:43:39.851Z,101403.91
2023-03-02T00:46:07.180Z,101407.84
2023-03-02T00:48:34.480Z,101411.09
2023-03-02T00:51:00.904Z,101397.56
2023-03-02T00:53:27.346Z,101409.47
2023-03-02T00:55:53.866Z,101411.47
2023-03-02T00:58:21.159Z,101404.69
2023-03-02T01:00:47.575Z,101403.50
2023-03-02T01:03:14.872Z,101401.13
2023-03-02T01:05:41.313Z,101393.19
2023-03-02T01:08:08.589Z,101401.13
2023-03-02T01:10:35.902Z,101401.50
2023-03-02T01:13:03.319Z,101400.75
2023-03-02T01:15:30.674Z,101395.56
2023-03-02T01:17:57.117Z,101396.72
2023-03-02T01:20:23.584Z,101393.94
2023-03-02T01:22:50.924Z,101387.22
2023-03-02T01:25:18.367Z,101393.16
2023-03-02T01:27:45.682Z,101395.94
2023-03-02T01:30:13.024Z,101394.78
2023-03-02T01:32:40.429Z,101395.16
2023-03-02T01:35:06.891Z,101384.00
2023-03-02T01:37:34.250Z,101388.41
2023-03-02T01:40:00.648Z,101386.03
2023-03-02T01:42:27.086Z,101385.63
2023-03-02T01:44:55.404Z,101384.41
2023-03-02T01:47:21.814Z,101387.72
2023-03-02T01:49:48.323Z,101394.41
2023-03-02T01:52:14.722Z,101387.59
2023-03-02T01:54:41.135Z,101389.97
2023-03-02T01:57:08.501Z,101384.03
2023-03-02T01:59:34.925Z,101385.19
2023-03-02T02:04:56.611Z,101379.22
2023-03-02T02:07:23.948Z,101381.22
2023-03-02T02:09:50.403Z,101388.34
2023-03-02T02:12:17.790Z,101382.41
2023-03-02T02:14:44.229Z,101384.78
2023-03-02T02:19:56.512Z,101388.03
2023-03-02T02:22:23.073Z,101390.78
2023-03-02T02:24:50.327Z,101385.25
2023-03-02T02:27:16.721Z,101387.25
2023-03-02T02:29:44.029Z,101378.47
2023-03-02T02:34:55.099Z,101380.06
2023-03-02T02:37:22.331Z,101373.66
2023-03-02T02:39:49.607Z,101372.50
2023-03-02T02:42:16.027Z,101368.13
2023-03-02T02:44:43.295Z,101366.09
2023-03-02T02:49:55.330Z,101358.59
2023-03-02T02:52:24.518Z,101355.44
2023-03-02T02:54:51.774Z,101354.56
2023-03-02T02:57:18.237Z,101358.22
2023-03-02T02:59:45.470Z,101353.41
2023-03-02T03:05:09.700Z,101356.97
2023-03-02T03:07:36.971Z,101350.25
2023-03-02T03:10:04.412Z,101349.84
2023-03-02T03:12:32.689Z,101340.72
2023-03-02T03:14:59.113Z,101343.88
2023-03-02T03:20:19.613Z,101345.03
2023-03-02T03:22:48.806Z,101343.06
2023-03-02T03:25:15.301Z,101336.34
2023-03-02T03:27:44.504Z,101339.53
2023-03-02T03:30:12.782Z,101341.09
2023-03-02T03:35:39.023Z,101336.34
2023-03-02T03:38:08.203Z,101334.34
2023-03-02T03:40:34.622Z,101336.38
2023-03-02T03:43:01.139Z,101340.28
2023-03-02T03:45:29.993Z,101333.56
2023-03-02T03:50:43.636Z,101337.91
2023-03-02T03:53:12.768Z,101344.72
2023-03-02T03:55:41.064Z,101341.09
2023-03-02T03:58:07.543Z,101342.66
2023-03-02T04:00:34.052Z,101341.50
2023-03-02T04:05:46.271Z,101338.31
2023-03-02T04:08:14.575Z,101343.09
2023-03-02T04:10:42.898Z,101338.75
2023-03-02T04:13:09.313Z,101332.75
2023-03-02T04:15:35.664Z,101341.50
2023-03-02T04:20:58.752Z,101335.53
2023-03-02T04:23:25.175Z,101339.91
2023-03-02T04:25:51.600Z,101335.94
2023-03-02T04:28:18.026Z,101339.09
2023-03-02T04:30:44.522Z,101337.50
2023-03-02T04:35:57.017Z,101333.56
2023-03-02T04:38:23.454Z,101337.88
2023-03-02T04:40:49.956Z,101333.16
2023-03-02T04:43:17.199Z,101326.81
2023-03-02T04:45:43.598Z,101328.38
2023-03-02T04:51:07.149Z,101332.31
2023-03-02T04:53:33.626Z,101335.47
2023-03-02T04:55:59.988Z,101333.94
2023-03-02T04:58:26.390Z,101330.75
2023-03-02T05:00:52.760Z,101336.34
2023-03-02T05:06:06.014Z,101346.25
2023-03-02T05:08:33.234Z,101351.41
2023-03-02T05:10:59.693Z,101351.00
2023-03-02T05:13:26.102Z,101344.69
2023-03-02T05:15:54.427Z,101349.03
2023-03-02T05:21:04.751Z,101345.47
2023-03-02T05:23:31.979Z,101353.81
2023-03-02T05:25:59.213Z,101351.06
2023-03-02T05:28:26.451Z,101350.66
2023-03-02T05:30:53.680Z,101351.81
2023-03-02T05:36:19.292Z,101355.44
2023-03-02T05:38:46.662Z,101359.00
2023-03-02T05:41:15.836Z,101352.25
2023-03-02T05:43:43.173Z,101359.38
2023-03-02T05:46:09.574Z,101364.16
2023-03-02T05:51:19.867Z,101364.16
2023-03-02T05:53:46.231Z,101360.16
2023-03-02T05:56:13.449Z,101365.72
2023-03-02T05:58:39.834Z,101366.16
2023-03-02T06:01:07.056Z,101375.69
2023-03-02T06:06:17.625Z,101383.25
2023-03-02T06:08:44.022Z,101380.88
2023-03-02T06:11:10.498Z,101381.28
2023-03-02T06:13:37.748Z,101373.84
2023-03-02T06:16:04.160Z,101384.16
2023-03-02T06:21:25.463Z,101404.31
2023-03-02T06:23:52.716Z,101404.44
2023-03-02T06:26:19.070Z,101415.16
2023-03-02T06:28:53.669Z,101413.19
2023-03-02T06:31:20.409Z,101416.78
2023-03-02T06:36:33.132Z,101419.16
2023-03-02T06:39:00.605Z,101422.34
2023-03-02T06:41:27.169Z,101420.34
2023-03-02T06:43:54.411Z,101424.31
2023-03-02T06:46:21.766Z,101417.56
2023-03-02T06:51:45.161Z,101422.72
2023-03-02T06:54:11.592Z,101421.56
2023-03-02T06:56:40.957Z,101423.53
2023-03-02T06:59:08.466Z,101422.38
2023-03-02T07:01:35.232Z,101425.94
2023-03-02T07:06:48.049Z,101425.13
2023-03-02T07:09:15.419Z,101419.16
2023-03-02T07:11:41.942Z,101417.59
2023-03-02T07:14:08.399Z,101416.81
2023-03-02T07:16:35.904Z,101418.41
2023-03-02T07:21:57.037Z,101408.47
2023-03-02T07:24:23.500Z,101410.13
2023-03-02T07:26:50.003Z,101406.13
2023-03-02T07:29:17.419Z,101406.91
2023-03-02T07:31:44.121Z,101408.94
2023-03-02T07:34:10.601Z,101397.03
2023-03-02T07:36:38.318Z,101407.78
2023-03-02T07:39:04.780Z,101401.84
2023-03-02T07:41:31.700Z,101400.19
2023-03-02T07:43:58.529Z,101402.22
2023-03-02T07:46:25.217Z,101397.03
2023-03-02T07:48:52.776Z,101403.38
2023-03-02T07:51:20.483Z,101397.84
2023-03-02T07:53:47.278Z,101400.22
2023-03-02T07:56:14.090Z,101400.63
2023-03-02T07:58:41.898Z,101400.25
2023-03-02T08:01:08.556Z,101389.13
2023-03-02T08:03:35.937Z,101387.56
2023-03-02T08:06:03.341Z,101396.31
2023-03-02T08:08:29.815Z,101385.53
2023-03-02T08:10:56.252Z,101385.94
2023-03-02T08:13:23.639Z,101391.47
2023-03-02T08:15:50.230Z,101384.31
2023-03-02T08:18:16.705Z,101383.91
2023-03-02T08:20:43.149Z,101378.38
2023-03-02T08:23:09.636Z,101379.19
2023-03-02T08:25:37.039Z,101377.19
2023-03-02T08:28:04.472Z,101380.75
2023-03-02T08:30:31.882Z,101375.19
2023-03-02T08:33:02.146Z,101371.69
2023-03-02T08:35:30.722Z,101374.13
2023-03-02T08:37:57.193Z,101371.34
2023-03-02T08:40:24.600Z,101369.69
2023-03-02T08:42:51.972Z,101372.47
2023-03-02T08:45:19.409Z,101375.28
2023-03-02T08:47:46.801Z,101374.09
2023-03-02T08:50:14.219Z,101366.56
2023-03-02T08:52:41.473Z,101374.13
2023-03-02T08:55:08.038Z,101377.69
2023-03-02T08:57:34.565Z,101384.88
2023-03-02T09:00:01.024Z,101378.84
2023-03-02T09:02:28.402Z,101366.53
2023-03-02T09:04:55.923Z,101375.66
2023-03-02T09:10:17.265Z,101374.09
2023-03-02T09:12:44.015Z,101372.50
2023-03-02T09:15:11.402Z,101381.25
2023-03-02T09:17:37.837Z,101373.69
2023-03-02T09:20:04.351Z,101370.13
2023-03-02T09:25:15.849Z,101375.28
2023-03-02T09:27:42.282Z,101379.28
2023-03-02T09:30:08.746Z,101376.88
2023-03-02T09:32:35.290Z,101379.28
2023-03-02T09:35:01.844Z,101376.50
2023-03-02T09:40:13.252Z,101375.66
2023-03-02T09:42:44.187Z,101373.28
2023-03-02T09:45:11.867Z,101370.91
2023-03-02T09:47:39.141Z,101372.50
2023-03-02T09:50:05.558Z,101369.34
2023-03-02T09:55:26.511Z,101360.97
2023-03-02T09:57:52.941Z,101358.59
2023-03-02T10:00:20.393Z,101357.00
2023-03-02T10:02:47.978Z,101357.00
2023-03-02T10:05:15.249Z,101355.44
2023-03-02T10:10:25.798Z,101350.22
2023-03-02T10:12:53.133Z,101358.59
2023-03-02T10:15:19.578Z,101353.03
2023-03-02T10:17:46.830Z,101350.66
2023-03-02T10:20:13.300Z,101348.31
2023-03-02T10:25:26.443Z,101343.53
2023-03-02T10:27:54.901Z,101343.56
2023-03-02T10:30:21.481Z,101341.53
2023-03-02T10:32:48.915Z,101341.91
2023-03-02T10:35:16.328Z,101341.13
2023-03-02T10:40:37.757Z,101339.16
2023-03-02T10:43:05.566Z,101345.09
2023-03-02T10:45:33.001Z,101334.59
2023-03-02T10:47:59.509Z,101332.72
2023-03-02T10:50:26.003Z,101337.81
2023-03-02T10:55:38.785Z,101323.59
2023-03-02T10:58:05.258Z,101320.69
2023-03-02T11:00:31.731Z,101324.19
2023-03-02T11:02:58.188Z,101323.41
2023-03-02T11:05:24.665Z,101313.75
2023-03-02T11:10:35.892Z,101320.34
2023-03-02T11:13:02.327Z,101316.19
2023-03-02T11:15:28.889Z,101304.72
2023-03-02T11:17:55.295Z,101310.31
2023-03-02T11:20:21.925Z,101311.84
2023-03-02T11:25:44.563Z,101303.63
2023-03-02T11:28:12.879Z,101304.66
2023-03-02T11:30:41.095Z,101298.66
2023-03-02T11:33:08.367Z,101298.19
2023-03-02T11:35:34.863Z,101296.41
2023-03-02T11:40:56.110Z,101293.38
2023-03-02T11:43:22.593Z,101292.69
2023-03-02T11:45:49.113Z,101291.47
2023-03-02T11:48:16.573Z,101302.34
2023-03-02T11:50:43.031Z,101295.84
2023-03-02T11:55:54.221Z,101293.78
2023-03-02T11:58:21.436Z,101295.88
2023-03-02T12:00:48.713Z,101292.16
2023-03-02T12:03:15.132Z,101300.13
2023-03-02T12:05:43.470Z,101289.44
2023-03-02T12:10:56.547Z,101289.72
2023-03-02T12:13:23.020Z,101284.13
2023-03-02T12:15:52.226Z,101287.22
2023-03-02T12:18:21.369Z,101289.56
2023-03-02T12:20:48.704Z,101278.78
2023-03-02T12:26:02.283Z,101283.16
2023-03-02T12:28:28.682Z,101278.06
2023-03-02T12:30:55.058Z,101277.63
2023-03-02T12:33:21.494Z,101281.16
2023-03-02T12:35:47.950Z,101273.63
2023-03-02T12:38:14.422Z,101275.16
2023-03-02T12:40:41.114Z,101269.94
2023-03-02T12:43:07.512Z,101269.16
2023-03-02T12:45:34.011Z,101267.56
2023-03-02T12:48:00.787Z,101261.59
2023-03-02T12:50:27.358Z,101258.41
2023-03-02T12:52:55.603Z,101252.84
2023-03-02T12:55:22.836Z,101252.44
2023-03-02T12:57:49.207Z,101249.66
2023-03-02T13:00:15.567Z,101242.09
2023-03-02T13:02:41.933Z,101246.47
2023-03-02T13:05:09.171Z,101250.06
2023-03-02T13:07:36.407Z,101241.66
2023-03-02T13:10:02.937Z,101243.25
2023-03-02T13:12:29.364Z,101243.66
2023-03-02T13:14:55.772Z,101236.53
2023-03-02T13:17:22.151Z,101240.88
2023-03-02T13:19:48.500Z,101231.78
2023-03-02T13:22:14.922Z,101232.91
2023-03-02T13:24:42.232Z,101230.13
2023-03-02T13:27:08.598Z,101228.09
2023-03-02T13:29:34.974Z,101226.50
2023-03-02T13:32:02.240Z,101228.84
2023-03-02T13:34:28.686Z,101226.44
2023-03-02T13:36:57.820Z,101228.81
2023-03-02T13:39:25.037Z,101226.03
2023-03-02T13:41:51.440Z,101216.09
2023-03-02T13:44:18.137Z,101224.06
2023-03-02T13:46:44.557Z,101218.16
2023-03-02T13:49:11.758Z,101211.03
2023-03-02T13:51:39.194Z,101209.78
2023-03-02T13:54:05.602Z,101209.75
2023-03-02T13:59:27.743Z,101205.78
2023-03-02T14:01:57.032Z,101204.19
2023-03-02T14:04:26.700Z,101197.44
2023-03-02T14:06:53.611Z,101183.53
2023-03-02T14:09:20.115Z,101180.75
2023-03-02T14:14:31.347Z,101173.63
2023-03-02T14:16:57.843Z,101172.47
2023-03-02T14:19:26.186Z,101163.72
2023-03-02T14:21:52.621Z,101162.50
2023-03-02T14:24:20.901Z,101155.34
2023-03-02T14:29:31.988Z,101140.25
2023-03-02T14:32:01.252Z,101149.41
2023-03-02T14:34:30.430Z,101153.34
2023-03-02T14:36:56.833Z,101138.28
2023-03-02T14:39:25.153Z,101141.47
2023-03-02T14:44:40.010Z,101145.41
2023-03-02T14:47:06.514Z,101130.78
2023-03-02T14:49:32.936Z,101139.50
2023-03-02T14:51:59.721Z,101131.16
2023-03-02T14:54:26.219Z,101133.16
2023-03-02T14:59:49.296Z,101136.34
2023-03-02T15:02:25.288Z,101129.97
2023-03-02T15:04:55.928Z,101132.34
2023-03-02T15:07:25.646Z,101124.38
2023-03-02T15:09:54.037Z,101120.81
2023-03-02T15:15:04.490Z,101127.16
2023-03-02T15:17:32.772Z,101124.38
2023-03-02T15:19:59.208Z,101121.59
2023-03-02T15:22:28.391Z,101112.84
2023-03-02T15:24:56.703Z,101118.41
2023-03-02T15:30:09.291Z,101116.00
2023-03-02T15:32:35.670Z,101104.09
2023-03-02T15:35:02.094Z,101107.66
2023-03-02T15:37:28.494Z,101107.66
2023-03-02T15:39:57.692Z,101106.88
2023-03-02T15:45:18.652Z,101101.31
2023-03-02T15:47:46.016Z,101095.31
2023-03-02T15:50:12.416Z,101098.13
2023-03-02T15:52:38.819Z,101101.31
2023-03-02T15:55:05.183Z,101103.28
2023-03-02T16:00:16.166Z,101098.53
2023-03-02T16:02:44.454Z,101098.91
2023-03-02T16:05:11.244Z,101106.44
2023-03-02T16:07:37.628Z,101110.84
2023-03-02T16:10:03.996Z,101104.88
2023-03-02T16:15:14.401Z,101100.88
2023-03-02T16:17:40.789Z,101095.31
2023-03-02T16:20:07.276Z,101089.75
2023-03-02T16:22:34.505Z,101096.94
2023-03-02T16:25:02.726Z,101083.03
2023-03-02T16:30:23.767Z,101091.75
2023-03-02T16:32:50.403Z,101094.53
2023-03-02T16:35:16.843Z,101097.31
2023-03-02T16:37:43.314Z,101087.00
2023-03-02T16:40:09.748Z,101081.53
2023-03-02T16:45:20.293Z,101095.09
2023-03-02T16:47:46.832Z,101086.78
2023-03-02T16:50:13.181Z,101085.16
2023-03-02T16:52:39.673Z,101085.59
2023-03-02T16:55:06.994Z,101086.03
2023-03-02T17:00:20.264Z,101083.63
2023-03-02T17:02:46.818Z,101080.81
2023-03-02T17:05:14.191Z,101085.66
2023-03-02T17:07:40.614Z,101088.41
2023-03-02T17:10:07.122Z,101082.41
2023-03-02T17:15:31.332Z,101087.19
2023-03-02T17:17:57.937Z,101083.22
2023-03-02T17:20:25.175Z,101081.63
2023-03-02T17:22:52.545Z,101077.22
2023-03-02T17:25:19.011Z,101084.78
2023-03-02T17:30:30.707Z,101079.63
2023-03-02T17:32:57.186Z,101076.06
2023-03-02T17:35:23.666Z,101086.03
2023-03-02T17:37:50.182Z,101076.47
2023-03-02T17:40:17.678Z,101079.66
2023-03-02T17:45:40.107Z,101069.75
2023-03-02T17:48:06.586Z,101071.28
2023-03-02T17:50:33.029Z,101078.84
2023-03-02T17:52:59.539Z,101074.91
2023-03-02T17:55:26.049Z,101071.72
2023-03-02T18:00:36.482Z,101066.53
2023-03-02T18:03:03.923Z,101066.91
2023-03-02T18:05:31.386Z,101064.13
2023-03-02T18:07:57.835Z,101062.13
2023-03-02T18:10:25.311Z,101068.88
2023-03-02T18:15:36.168Z,101073.28
2023-03-02T18:18:02.645Z,101073.69
2023-03-02T18:20:30.029Z,101069.34
2023-03-02T18:22:57.483Z,101067.38
2023-03-02T18:25:24.876Z,101070.13
2023-03-02T18:30:46.205Z,101067.31
2023-03-02T18:33:13.002Z,101062.53
2023-03-02T18:35:40.407Z,101067.31
2023-03-02T18:38:07.771Z,101069.72
2023-03-02T18:40:34.232Z,101070.50
2023-03-02T18:45:45.719Z,101073.25
2023-03-02T18:48:13.105Z,101066.53
2023-03-02T18:50:39.571Z,101069.69
2023-03-02T18:53:06.966Z,101070.88
2023-03-02T18:55:33.451Z,101068.88
2023-03-02T18:57:59.912Z,101063.31
2023-03-02T19:00:27.964Z,101063.31
2023-03-02T19:02:54.755Z,101055.00
2023-03-02T19:05:22.177Z,101058.97
2023-03-02T19:07:48.691Z,101060.97
2023-03-02T19:10:16.114Z,101060.97
2023-03-02T19:12:43.541Z,101056.19
2023-03-02T19:15:10.217Z,101053.41
2023-03-02T19:17:36.656Z,101057.75
2023-03-02T19:20:03.145Z,101054.19
2023-03-02T19:22:29.642Z,101054.19
2023-03-02T19:24:56.122Z,101050.22
2023-03-02T19:27:25.310Z,101058.56
2023-03-02T19:29:51.792Z,101051.78
2023-03-02T19:32:19.434Z,101054.97
2023-03-02T19:34:46.861Z,101053.78
2023-03-02T19:37:13.339Z,101054.97
2023-03-02T19:39:40.752Z,101049.00
2023-03-02T19:42:07.249Z,101053.41
2023-03-02T19:44:33.925Z,101060.53
2023-03-02T19:47:00.396Z,101056.97
2023-03-02T19:49:26.867Z,101054.56
2023-03-02T19:51:53.373Z,101060.94
2023-03-02T19:54:19.847Z,101055.38
2023-03-02T19:56:46.345Z,101055.78
2023-03-02T19:59:12.802Z,101056.97
2023-03-02T20:01:39.301Z,101059.75
2023-03-02T20:04:05.775Z,101058.56
2023-03-02T20:06:34.031Z,101055.78
2023-03-02T20:09:00.575Z,101058.16
2023-03-02T20:11:27.419Z,101056.56
2023-03-02T20:13:54.852Z,101065.69
2023-03-02T20:19:05.239Z,101061.72
2023-03-02T20:21:32.676Z,101056.16
2023-03-02T20:23:59.200Z,101058.53
2023-03-02T20:26:25.724Z,101053.75
2023-03-02T20:28:53.179Z,101048.22
2023-03-02T20:34:03.637Z,101046.59
2023-03-02T20:36:30.134Z,101048.22
2023-03-02T20:38:57.539Z,101048.97
2023-03-02T20:41:24.050Z,101046.59
2023-03-02T20:43:51.481Z,101046.97
2023-03-02T20:49:02.185Z,101040.28
2023-03-02T20:51:28.669Z,101035.03
2023-03-02T20:53:55.153Z,101032.03
2023-03-02T20:56:21.603Z,101031.22
2023-03-02T20:58:48.082Z,101027.09
2023-03-02T21:04:00.566Z,101021.88
2023-03-02T21:06:40.161Z,101013.72
2023-03-02T21:09:06.823Z,101021.69
2023-03-02T21:11:33.305Z,101023.69
2023-03-02T21:14:00.780Z,101009.41
2023-03-02T21:16:27.275Z,101009.44
2023-03-02T21:18:54.688Z,101009.00
2023-03-02T21:21:29.706Z,101011.63
2023-03-02T21:24:03.217Z,101009.50
2023-03-02T21:26:29.738Z,101009.47
2023-03-02T21:28:57.178Z,101004.47
2023-03-02T21:31:23.738Z,101002.97
2023-03-02T21:33:50.406Z,100995.88
2023-03-02T21:36:17.877Z,100991.91
2023-03-02T21:38:45.307Z,100991.47
2023-03-02T21:41:12.709Z,100996.41
2023-03-02T21:43:40.112Z,100985.69
2023-03-02T21:46:08.324Z,100978.06
2023-03-02T21:48:35.772Z,100978.09
2023-03-02T21:51:02.252Z,100980.53
2023-03-02T21:53:30.665Z,100980.50
2023-03-02T21:55:58.111Z,100979.75
2023-03-02T21:58:24.596Z,100974.47
2023-03-02T22:00:51.100Z,100979.31
2023-03-02T22:03:18.532Z,100970.84
2023-03-02T22:05:45.083Z,100976.81
2023-03-02T22:08:12.464Z,100983.56
2023-03-02T22:10:38.948Z,100977.16
2023-03-02T22:13:06.383Z,100974.00
2023-03-02T22:15:32.849Z,100970.81
2023-03-02T22:17:59.316Z,100966.47
2023-03-02T22:20:25.797Z,100969.16
2023-03-02T22:22:53.221Z,100965.25
2023-03-02T22:25:19.678Z,100969.59
2023-03-02T22:27:47.079Z,100965.22
2023-03-02T22:30:14.474Z,100966.88
2023-03-02T22:32:41.049Z,100965.28
2023-03-02T22:35:07.546Z,100969.66
2023-03-02T22:37:34.038Z,100974.81
2023-03-02T22:40:00.493Z,100964.47
2023-03-02T22:42:27.902Z,100970.44
2023-03-02T22:44:54.393Z,100966.03
2023-03-02T22:47:20.874Z,100961.66
2023-03-02T22:49:47.384Z,100966.00
2023-03-02T22:52:13.848Z,100963.63
2023-03-02T22:54:40.369Z,100964.38
2023-03-02T22:57:07.789Z,100965.63
2023-03-02T22:59:34.256Z,100961.19
2023-03-02T23:02:00.708Z,100954.00
2023-03-02T23:04:27.232Z,100949.28
2023-03-02T23:06:54.672Z,100947.75
2023-03-02T23:09:21.151Z,100947.31
2023-03-02T23:11:48.547Z,100940.88
2023-03-02T23:14:15.940Z,100938.97
2023-03-02T23:16:42.432Z,100935.41
2023-03-02T23:19:08.977Z,100938.13
2023-03-02T23:21:36.361Z,100935.34
2023-03-02T23:24:02.896Z,100921.91
2023-03-02T23:26:30.282Z,100920.72
2023-03-02T23:28:56.737Z,100922.22
2023-03-02T23:31:23.268Z,100919.06
2023-03-02T23:33:50.705Z,100923.44
2023-03-02T23:36:18.102Z,100920.66
2023-03-02T23:38:44.549Z,100920.28
2023-03-02T23:41:11.979Z,100920.63
2023-03-02T23:43:38.456Z,100924.22
2023-03-02T23:46:04.953Z,100928.16
2023-03-02T23:48:31.508Z,100918.66
2023-03-02T23:50:57.999Z,100911.47
2023-03-02T23:53:24.469Z,100910.31
2023-03-02T23:55:50.948Z,100910.34
2023-03-02T23:58:18.415Z,100907.13
